createdAt,value
2018-06-04T00:01:17.166Z,96309.64
2018-06-04T00:03:45.751Z,96304.74
2018-06-04T00:06:14.325Z,96286.30
2018-06-04T00:08:42.922Z,96274.53
2018-06-04T00:11:11.494Z,96270.78
2018-06-04T00:13:40.162Z,96268.17
2018-06-04T00:16:08.716Z,96249.00
2018-06-04T00:18:37.320Z,96264.69
2018-06-04T00:21:05.907Z,96257.67
2018-06-04T00:23:34.558Z,96248.27
2018-06-04T00:26:03.117Z,96249.44
2018-06-04T00:28:31.682Z,96269.01
2018-06-04T00:31:00.238Z,96280.95
2018-06-04T00:33:28.827Z,96286.08
2018-06-04T00:35:57.397Z,96284.77
2018-06-04T00:38:26.009Z,96284.27
2018-06-04T00:40:54.661Z,96282.90
2018-06-04T00:43:23.320Z,96282.53
2018-06-04T00:45:51.920Z,96272.63
2018-06-04T00:48:20.535Z,96274.73
2018-06-04T00:50:49.076Z,96272.66
2018-06-04T00:53:17.688Z,96279.48
2018-06-04T00:55:57.268Z,96281.66
2018-06-04T00:58:25.845Z,96277.45
2018-06-04T01:00:54.385Z,96269.68
2018-06-04T01:03:22.955Z,96268.70
2018-06-04T01:05:51.591Z,96261.38
2018-06-04T01:08:20.201Z,96255.25
2018-06-04T01:10:48.784Z,96255.59
2018-06-04T01:13:17.378Z,96250.10
2018-06-04T01:15:46.071Z,96240.30
2018-06-04T01:18:14.712Z,96236.92
2018-06-04T01:20:43.331Z,96242.41
2018-06-04T01:23:11.926Z,96239.50
2018-06-04T01:25:40.488Z,96241.97
2018-06-04T01:28:09.068Z,96236.42
2018-06-04T01:30:37.738Z,96233.08
2018-06-04T01:33:06.336Z,96226.95
2018-06-04T01:35:34.976Z,96224.38
2018-06-04T01:38:03.597Z,96226.48
2018-06-04T01:40:32.152Z,96220.56
2018-06-04T01:43:00.757Z,96215.73
2018-06-04T01:45:29.396Z,96208.48
2018-06-04T01:47:57.951Z,96199.42
2018-06-04T01:50:26.624Z,96206.71
2018-06-04T01:52:55.226Z,96190.42
2018-06-04T01:55:23.981Z,96196.08
2018-06-04T01:57:52.580Z,96196.05
2018-06-04T02:00:21.220Z,96179.42
2018-06-04T02:02:49.752Z,96178.55
2018-06-04T02:05:18.364Z,96169.95
2018-06-04T02:07:46.995Z,96170.28
2018-06-04T02:10:15.644Z,96165.94
2018-06-04T02:12:44.287Z,96166.66
2018-06-04T02:15:12.903Z,96161.48
2018-06-04T02:17:41.545Z,96164.42
2018-06-04T02:20:10.130Z,96169.17
2018-06-04T02:22:38.801Z,96171.34
2018-06-04T02:25:07.382Z,96172.14
2018-06-04T02:27:36.060Z,96163.33
2018-06-04T02:30:05.033Z,96160.68
2018-06-04T02:32:33.687Z,96159.59
2018-06-04T02:35:02.302Z,96160.61
2018-06-04T02:37:30.922Z,96158.03
2018-06-04T02:39:59.481Z,96152.74
2018-06-04T02:42:28.069Z,96140.30
2018-06-04T02:44:56.610Z,96143.20
2018-06-04T02:47:25.214Z,96143.38
2018-06-04T02:49:53.819Z,96138.47
2018-06-04T02:52:22.404Z,96133.80
2018-06-04T02:54:50.931Z,96133.88
2018-06-04T02:57:19.497Z,96125.17
2018-06-04T02:59:48.082Z,96120.84
2018-06-04T03:02:16.717Z,96122.12
2018-06-04T03:04:45.385Z,96117.88
2018-06-04T03:07:14.000Z,96114.72
2018-06-04T03:09:42.586Z,96112.06
2018-06-04T03:12:11.221Z,96119.35
2018-06-04T03:14:39.826Z,96115.98
2018-06-04T03:17:08.446Z,96111.38
2018-06-04T03:19:37.061Z,96112.22
2018-06-04T03:22:05.633Z,96118.59
2018-06-04T03:24:34.337Z,96126.36
2018-06-04T03:27:02.929Z,96126.55
2018-06-04T03:29:31.493Z,96124.34
2018-06-04T03:32:00.084Z,96126.95
2018-06-04T03:34:28.714Z,96139.91
2018-06-04T03:36:57.322Z,96159.97
2018-06-04T03:39:25.914Z,96178.78
2018-06-04T03:41:54.493Z,96199.82
2018-06-04T03:44:23.070Z,96220.92
2018-06-04T03:46:51.710Z,96235.22
2018-06-04T03:49:20.341Z,96259.13
2018-06-04T03:51:48.966Z,96261.33
2018-06-04T03:54:17.646Z,96261.73
2018-06-04T03:56:46.247Z,96276.11
2018-06-04T03:59:14.784Z,96273.59
2018-06-04T04:01:43.415Z,96288.52
2018-06-04T04:04:12.113Z,95873.84
2018-06-04T04:06:40.736Z,96290.97
2018-06-04T04:09:09.670Z,96314.23
2018-06-04T04:11:38.234Z,96334.11
2018-06-04T04:14:06.865Z,96335.23
2018-06-04T04:16:37.868Z,96333.77
2018-06-04T04:19:06.825Z,96344.20
2018-06-04T04:21:35.507Z,96367.77
2018-06-04T04:24:04.080Z,96373.75
2018-06-04T04:26:32.791Z,96384.20
2018-06-04T04:29:01.314Z,96429.69
2018-06-04T04:31:29.860Z,96453.41
2018-06-04T04:33:58.516Z,96478.84
2018-06-04T04:36:27.070Z,96466.25
2018-06-04T04:38:55.589Z,96477.09
2018-06-04T04:41:24.189Z,96498.11
2018-06-04T04:43:52.716Z,96502.27
2018-06-04T04:46:21.282Z,96519.13
2018-06-04T04:48:49.889Z,96525.03
2018-06-04T04:51:18.495Z,96526.77
2018-06-04T04:53:47.012Z,96505.31
2018-06-04T04:56:15.803Z,96498.00
2018-06-04T04:58:44.386Z,96517.87
2018-06-04T05:01:12.966Z,96531.74
2018-06-04T05:03:41.542Z,96526.06
2018-06-04T05:06:10.118Z,96543.32
2018-06-04T05:08:38.738Z,96576.33
2018-06-04T05:11:07.268Z,96605.52
2018-06-04T05:13:35.793Z,96597.44
2018-06-04T05:16:04.288Z,96595.27
2018-06-04T05:18:32.868Z,96620.63
2018-06-04T05:21:01.421Z,96626.64
2018-06-04T05:23:30.019Z,96618.53
2018-06-04T05:25:58.561Z,96657.09
2018-06-04T05:28:27.094Z,96628.82
2018-06-04T05:30:55.625Z,96625.69
2018-06-04T05:33:24.178Z,96637.75
2018-06-04T05:35:52.701Z,96620.17
2018-06-04T05:38:21.224Z,96623.67
2018-06-04T05:40:49.764Z,96627.08
2018-06-04T05:43:18.389Z,96652.66
2018-06-04T05:45:47.077Z,96636.93
2018-06-04T05:48:15.704Z,96648.14
2018-06-04T05:50:44.246Z,96688.44
2018-06-04T05:53:12.836Z,96682.84
2018-06-04T05:55:41.410Z,96716.63
2018-06-04T05:58:09.993Z,96710.14
2018-06-04T06:00:38.542Z,96694.26
2018-06-04T06:03:07.229Z,96773.91
2018-06-04T06:05:35.947Z,96786.99
2018-06-04T06:08:04.612Z,96769.97
2018-06-04T06:10:33.240Z,96787.02
2018-06-04T06:13:01.765Z,96813.70
2018-06-04T06:15:30.417Z,96840.55
2018-06-04T06:17:59.022Z,96828.23
2018-06-04T06:20:27.577Z,96814.15
2018-06-04T06:22:56.155Z,96819.88
2018-06-04T06:25:24.768Z,96853.73
2018-06-04T06:27:53.350Z,96837.94
2018-06-04T06:30:22.006Z,96878.05
2018-06-04T06:32:50.551Z,96835.18
2018-06-04T06:35:19.277Z,96907.34
2018-06-04T06:37:47.874Z,96986.36
2018-06-04T06:40:16.558Z,97052.56
2018-06-04T06:42:45.100Z,97032.00
2018-06-04T06:45:13.747Z,97056.83
2018-06-04T06:47:42.343Z,97056.51
2018-06-04T06:50:11.275Z,97057.69
2018-06-04T06:52:39.902Z,97072.20
2018-06-04T06:55:08.471Z,97066.98
2018-06-04T06:57:37.038Z,97079.36
2018-06-04T07:00:05.645Z,97076.59
2018-06-04T07:02:34.261Z,97083.92
2018-06-04T07:05:02.851Z,97075.55
2018-06-04T07:07:31.419Z,97075.05
2018-06-04T07:09:59.994Z,97077.27
2018-06-04T07:12:28.509Z,97079.82
2018-06-04T07:14:57.051Z,97078.73
2018-06-04T07:17:25.685Z,97073.81
2018-06-04T07:19:54.464Z,97079.45
2018-06-04T07:22:23.029Z,97078.76
2018-06-04T07:24:51.560Z,97084.42
2018-06-04T07:27:20.637Z,97074.59
2018-06-04T07:29:49.505Z,97079.95
2018-06-04T07:32:18.156Z,97072.58
2018-06-04T07:34:47.326Z,97079.66
2018-06-04T07:37:16.011Z,97073.58
2018-06-04T07:39:44.553Z,97074.27
2018-06-04T07:42:13.277Z,97074.08
2018-06-04T07:44:41.833Z,97072.36
2018-06-04T07:47:10.387Z,97060.98
2018-06-04T07:49:39.015Z,97077.78
2018-06-04T07:52:07.621Z,97082.45
2018-06-04T07:54:36.289Z,97076.77
2018-06-04T07:57:04.984Z,97078.02
2018-06-04T07:59:33.482Z,97071.30
2018-06-04T08:02:02.080Z,97068.75
2018-06-04T08:04:30.625Z,97068.45
2018-06-04T08:06:59.186Z,97068.66
2018-06-04T08:09:27.767Z,97076.60
2018-06-04T08:11:56.291Z,97080.93
2018-06-04T08:14:24.817Z,97085.23
2018-06-04T08:16:53.326Z,97084.23
2018-06-04T08:19:21.960Z,97079.91
2018-06-04T08:21:50.559Z,97069.44
2018-06-04T08:24:19.174Z,97075.45
2018-06-04T08:26:47.693Z,97067.45
2018-06-04T08:29:16.268Z,97070.28
2018-06-04T08:31:44.763Z,97060.47
2018-06-04T08:34:13.293Z,97063.30
2018-06-04T08:36:41.800Z,97068.28
2018-06-04T08:39:10.342Z,97065.25
2018-06-04T08:41:38.849Z,97065.02
2018-06-04T08:44:07.389Z,97053.45
2018-06-04T08:46:35.939Z,97063.54
2018-06-04T08:49:04.519Z,97064.48
2018-06-04T08:51:33.224Z,97066.72
2018-06-04T08:54:01.761Z,97062.39
2018-06-04T08:56:30.274Z,97064.56
2018-06-04T08:58:58.826Z,97060.53
2018-06-04T09:01:27.341Z,97065.94
2018-06-04T09:03:55.902Z,97061.13
2018-06-04T09:06:24.555Z,97060.16
2018-06-04T09:08:54.084Z,97054.41
2018-06-04T09:11:22.590Z,97058.97
2018-06-04T09:13:51.110Z,97057.00
2018-06-04T09:16:19.694Z,97062.13
2018-06-04T09:18:48.227Z,97052.73
2018-06-04T09:21:16.806Z,97052.63
2018-06-04T09:23:45.373Z,97046.65
2018-06-04T09:26:13.894Z,97049.45
2018-06-04T09:28:42.426Z,97049.16
2018-06-04T09:31:10.921Z,97040.93
2018-06-04T09:33:39.500Z,97049.42
2018-06-04T09:36:08.072Z,97050.41
2018-06-04T09:38:37.886Z,97045.59
2018-06-04T09:41:06.556Z,97033.31
2018-06-04T09:43:35.103Z,97032.77
2018-06-04T09:46:03.743Z,97042.62
2018-06-04T09:48:32.240Z,97044.53
2018-06-04T09:51:00.774Z,97037.74
2018-06-04T09:53:29.277Z,97030.91
2018-06-04T09:55:57.785Z,97027.58
2018-06-04T09:58:26.337Z,97028.97
2018-06-04T10:00:54.878Z,97036.71
2018-06-04T10:03:23.395Z,97034.05
2018-06-04T10:05:52.121Z,97029.05
2018-06-04T10:08:20.625Z,97033.38
2018-06-04T10:10:49.111Z,97022.63
2018-06-04T10:13:17.682Z,97022.25
2018-06-04T10:15:46.225Z,97022.38
2018-06-04T10:18:14.969Z,97021.77
2018-06-04T10:20:44.145Z,97019.91
2018-06-04T10:23:12.703Z,97011.88
2018-06-04T10:25:41.187Z,97011.79
2018-06-04T10:28:09.702Z,97003.07
2018-06-04T10:30:38.195Z,97007.91
2018-06-04T10:33:06.763Z,97009.45
2018-06-04T10:35:35.419Z,96998.88
2018-06-04T10:38:03.958Z,96999.34
2018-06-04T10:40:32.583Z,97000.06
2018-06-04T10:43:01.247Z,97000.61
2018-06-04T10:45:29.772Z,96996.34
2018-06-04T10:47:58.301Z,96992.30
2018-06-04T10:50:26.806Z,96991.61
2018-06-04T10:52:55.359Z,96989.55
2018-06-04T10:55:23.938Z,96991.02
2018-06-04T10:57:52.451Z,96988.90
2018-06-04T11:00:20.973Z,96980.51
2018-06-04T11:02:49.481Z,96979.84
2018-06-04T11:05:18.005Z,96975.98
2018-06-04T11:07:46.712Z,96973.02
2018-06-04T11:10:15.489Z,96972.91
2018-06-04T11:12:44.229Z,96963.62
2018-06-04T11:15:12.898Z,96954.80
2018-06-04T11:17:41.581Z,96962.66
2018-06-04T11:20:10.276Z,96964.97
2018-06-04T11:22:38.908Z,96957.83
2018-06-04T11:25:07.557Z,96952.92
2018-06-04T11:27:37.264Z,96956.95
2018-06-04T11:30:06.047Z,96950.47
2018-06-04T11:32:34.764Z,96951.35
2018-06-04T11:35:03.546Z,96939.93
2018-06-04T11:37:32.456Z,96950.95
2018-06-04T11:40:01.169Z,96945.16
2018-06-04T11:42:29.802Z,96935.40
2018-06-04T11:44:58.577Z,96934.13
2018-06-04T11:47:27.301Z,96936.75
2018-06-04T11:49:56.038Z,96932.25
2018-06-04T11:52:24.957Z,96934.40
2018-06-04T11:54:53.609Z,96928.35
2018-06-04T11:57:22.304Z,96921.95
2018-06-04T11:59:51.033Z,96935.45
2018-06-04T12:02:19.781Z,96910.34
2018-06-04T12:04:48.402Z,96922.52
2018-06-04T12:07:17.164Z,96909.51
2018-06-04T12:09:45.843Z,96903.88
2018-06-04T12:12:14.473Z,96894.86
2018-06-04T12:14:43.090Z,96894.85
2018-06-04T12:17:11.781Z,96898.36
2018-06-04T12:19:40.453Z,96906.03
2018-06-04T12:22:09.136Z,96889.16
2018-06-04T12:24:37.858Z,96903.38
2018-06-04T12:27:06.592Z,96901.28
2018-06-04T12:29:35.271Z,96902.61
2018-06-04T12:32:04.075Z,96898.26
2018-06-04T12:34:32.589Z,96891.89
2018-06-04T12:37:01.149Z,96891.59
2018-06-04T12:39:29.663Z,96882.49
2018-06-04T12:41:58.257Z,96886.53
2018-06-04T12:44:26.860Z,96879.94
2018-06-04T12:46:55.405Z,96858.23
2018-06-04T12:49:24.008Z,96868.31
2018-06-04T12:51:52.549Z,96853.73
2018-06-04T12:54:21.143Z,96859.67
2018-06-04T12:56:49.660Z,96863.31
2018-06-04T12:59:18.234Z,96854.30
2018-06-04T13:01:46.757Z,96846.93
2018-06-04T13:04:15.377Z,96852.95
2018-06-04T13:06:43.903Z,96846.37
2018-06-04T13:09:12.426Z,96850.34
2018-06-04T13:11:41.048Z,96847.78
2018-06-04T13:14:09.569Z,96843.50
2018-06-04T13:16:38.134Z,96837.63
2018-06-04T13:19:06.679Z,96830.27
2018-06-04T13:21:35.210Z,96821.97
2018-06-04T13:24:03.830Z,96812.86
2018-06-04T13:26:32.364Z,96808.53
2018-06-04T13:29:00.952Z,96818.94
2018-06-04T13:31:29.439Z,96818.75
2018-06-04T13:33:58.017Z,96822.95
2018-06-04T13:36:26.527Z,96805.34
2018-06-04T13:38:55.168Z,96802.39
2018-06-04T13:41:23.798Z,96795.66
2018-06-04T13:43:52.312Z,96787.83
2018-06-04T13:46:20.798Z,96794.78
2018-06-04T13:48:49.357Z,96789.71
2018-06-04T13:51:17.966Z,96780.38
2018-06-04T13:53:46.495Z,96789.89
2018-06-04T13:56:15.033Z,96782.05
2018-06-04T13:58:43.688Z,96778.84
2018-06-04T14:01:12.233Z,96763.86
2018-06-04T14:03:40.908Z,96758.14
2018-06-04T14:06:09.665Z,96777.67
2018-06-04T14:08:38.304Z,96772.50
2018-06-04T14:11:07.338Z,96763.91
2018-06-04T14:13:36.030Z,96756.59
2018-06-04T14:16:04.850Z,96757.23
2018-06-04T14:18:33.648Z,96759.06
2018-06-04T14:21:02.285Z,96751.07
2018-06-04T14:23:31.110Z,96747.52
2018-06-04T14:25:59.984Z,96753.80
2018-06-04T14:28:28.714Z,96745.27
2018-06-04T14:30:57.473Z,96746.23
2018-06-04T14:33:26.196Z,96747.07
2018-06-04T14:35:55.032Z,96734.61
2018-06-04T14:38:23.784Z,96734.83
2018-06-04T14:40:52.505Z,96736.16
2018-06-04T14:43:21.318Z,96725.16
2018-06-04T14:45:49.973Z,96724.23
2018-06-04T14:48:18.624Z,96727.75
2018-06-04T14:50:47.289Z,96710.09
2018-06-04T14:53:16.174Z,96712.25
2018-06-04T14:55:44.872Z,96722.56
2018-06-04T14:58:13.537Z,96720.94
2018-06-04T15:00:42.276Z,96722.61
2018-06-04T15:03:10.925Z,96697.13
2018-06-04T15:05:39.788Z,96712.66
2018-06-04T15:08:08.410Z,96719.84
2018-06-04T15:10:37.179Z,96710.45
2018-06-04T15:13:05.976Z,96725.91
2018-06-04T15:15:34.652Z,96722.66
2018-06-04T15:18:03.335Z,96714.03
2018-06-04T15:20:31.930Z,96722.97
2018-06-04T15:23:00.586Z,96724.28
2018-06-04T15:25:29.251Z,96720.02
2018-06-04T15:27:58.153Z,96720.06
2018-06-04T15:30:26.984Z,96715.82
2018-06-04T15:32:55.785Z,96712.84
2018-06-04T15:35:24.489Z,96713.56
2018-06-04T15:37:53.317Z,96703.63
2018-06-04T15:40:21.936Z,96694.89
2018-06-04T15:42:50.986Z,96694.89
2018-06-04T15:45:19.641Z,96683.16
2018-06-04T15:47:48.398Z,96687.86
2018-06-04T15:50:17.071Z,96685.72
2018-06-04T15:52:45.709Z,96687.31
2018-06-04T15:55:14.508Z,96686.63
2018-06-04T15:57:43.046Z,96682.09
2018-06-04T16:00:11.554Z,96684.91
2018-06-04T16:02:40.112Z,96686.70
2018-06-04T16:05:08.979Z,96686.20
2018-06-04T16:07:37.497Z,96687.07
2018-06-04T16:10:06.029Z,96688.09
2018-06-04T16:12:34.554Z,96682.09
2018-06-04T16:15:03.094Z,96680.88
2018-06-04T16:17:31.594Z,96685.73
2018-06-04T16:20:00.152Z,96686.23
2018-06-04T16:22:28.671Z,96689.14
2018-06-04T16:24:57.192Z,96691.76
2018-06-04T16:27:25.685Z,96693.03
2018-06-04T16:29:54.228Z,96679.67
2018-06-04T16:32:22.745Z,96691.67
2018-06-04T16:34:51.297Z,96683.03
2018-06-04T16:37:19.866Z,96689.48
2018-06-04T16:39:48.356Z,96685.59
2018-06-04T16:42:16.868Z,96687.78
2018-06-04T16:44:45.454Z,96691.66
2018-06-04T16:47:13.912Z,96697.27
2018-06-04T16:49:42.419Z,96690.43
2018-06-04T16:52:10.916Z,96684.02
2018-06-04T16:54:39.444Z,96686.65
2018-06-04T16:57:08.962Z,96688.81
2018-06-04T16:59:37.561Z,96677.17
2018-06-04T17:02:06.201Z,96684.21
2018-06-04T17:04:34.717Z,96681.77
2018-06-04T17:07:03.204Z,96677.53
2018-06-04T17:09:31.697Z,96675.45
2018-06-04T17:12:00.209Z,96665.63
2018-06-04T17:14:28.694Z,96672.94
2018-06-04T17:16:57.208Z,96658.78
2018-06-04T17:19:25.724Z,96660.49
2018-06-04T17:21:54.265Z,96652.73
2018-06-04T17:24:22.776Z,96660.02
2018-06-04T17:26:51.305Z,96657.45
2018-06-04T17:29:19.792Z,96659.61
2018-06-04T17:31:48.310Z,96655.36
2018-06-04T17:34:16.816Z,96637.73
2018-06-04T17:36:45.329Z,96648.95
2018-06-04T17:39:13.907Z,96653.27
2018-06-04T17:41:42.466Z,96650.69
2018-06-04T17:44:11.025Z,96620.27
2018-06-04T17:46:39.625Z,96644.27
2018-06-04T17:49:08.220Z,96658.88
2018-06-04T17:51:36.881Z,96664.44
2018-06-04T17:54:05.436Z,96661.45
2018-06-04T17:56:34.000Z,96665.73
2018-06-04T17:59:02.501Z,96671.75
2018-06-04T18:01:31.042Z,96672.59
2018-06-04T18:03:59.573Z,96679.89
2018-06-04T18:06:28.072Z,96671.31
2018-06-04T18:08:56.650Z,96671.73
2018-06-04T18:11:25.288Z,96674.76
2018-06-04T18:13:53.873Z,96669.61
2018-06-04T18:16:22.370Z,96669.16
2018-06-04T18:18:50.937Z,96664.47
2018-06-04T18:21:19.479Z,96675.17
2018-06-04T18:23:48.051Z,96670.02
2018-06-04T18:26:16.723Z,96678.16
2018-06-04T18:28:45.291Z,96675.55
2018-06-04T18:31:13.864Z,96673.41
2018-06-04T18:33:42.425Z,96682.83
2018-06-04T18:36:10.966Z,96678.97
2018-06-04T18:38:39.498Z,96676.81
2018-06-04T18:41:08.005Z,96683.22
2018-06-04T18:43:36.553Z,96687.06
2018-06-04T18:46:05.057Z,96685.77
2018-06-04T18:48:33.612Z,96685.75
2018-06-04T18:51:02.150Z,96683.57
2018-06-04T18:53:30.769Z,96682.22
2018-06-04T18:55:59.289Z,96685.58
2018-06-04T18:58:27.813Z,96686.44
2018-06-04T19:00:56.323Z,96685.99
2018-06-04T19:03:24.917Z,96687.66
2018-06-04T19:05:53.478Z,96688.03
2018-06-04T19:08:22.014Z,96692.75
2018-06-04T19:10:50.611Z,96698.65
2018-06-04T19:13:19.151Z,96702.47
2018-06-04T19:15:47.739Z,96702.41
2018-06-04T19:18:16.295Z,96697.19
2018-06-04T19:20:44.873Z,96702.72
2018-06-04T19:23:13.410Z,96700.95
2018-06-04T19:25:41.961Z,96710.38
2018-06-04T19:28:10.481Z,96709.05
2018-06-04T19:30:39.023Z,96714.63
2018-06-04T19:33:07.845Z,96718.45
2018-06-04T19:35:36.345Z,96721.88
2018-06-04T19:38:05.025Z,96728.27
2018-06-04T19:40:33.633Z,96726.06
2018-06-04T19:43:02.181Z,96729.87
2018-06-04T19:45:30.761Z,96741.37
2018-06-04T19:47:59.245Z,96741.31
2018-06-04T19:50:27.845Z,96741.68
2018-06-04T19:52:56.410Z,96737.79
2018-06-04T19:55:24.963Z,96742.48
2018-06-04T19:57:53.518Z,96744.11
2018-06-04T20:00:22.012Z,96748.80
2018-06-04T20:02:50.627Z,96753.48
2018-06-04T20:05:19.151Z,96758.53
2018-06-04T20:07:47.736Z,96757.97
2018-06-04T20:10:16.273Z,96758.77
2018-06-04T20:12:44.885Z,96756.55
2018-06-04T20:15:13.411Z,96756.08
2018-06-04T20:17:42.019Z,96761.55
2018-06-04T20:20:10.593Z,96770.05
2018-06-04T20:22:39.145Z,96767.87
2018-06-04T20:25:07.708Z,96770.81
2018-06-04T20:27:36.245Z,96771.61
2018-06-04T20:30:05.196Z,96768.52
2018-06-04T20:32:33.740Z,96773.59
2018-06-04T20:35:02.495Z,96781.98
2018-06-04T20:37:31.269Z,96774.10
2018-06-04T20:39:59.908Z,96777.86
2018-06-04T20:42:28.606Z,96778.55
2018-06-04T20:44:57.469Z,96774.03
2018-06-04T20:47:26.408Z,96766.19
2018-06-04T20:49:55.132Z,96762.69
2018-06-04T20:52:24.003Z,96778.29
2018-06-04T20:54:52.780Z,96772.91
2018-06-04T20:57:21.706Z,96770.23
2018-06-04T20:59:51.493Z,96767.56
2018-06-04T21:02:20.351Z,96758.41
2018-06-04T21:04:49.256Z,96748.92
2018-06-04T21:07:17.902Z,96736.00
2018-06-04T21:09:46.610Z,96708.55
2018-06-04T21:12:15.240Z,96690.50
2018-06-04T21:14:44.061Z,96695.60
2018-06-04T21:17:12.796Z,96701.09
2018-06-04T21:19:43.431Z,96698.41
2018-06-04T21:22:12.311Z,96680.38
2018-06-04T21:24:41.023Z,96646.14
2018-06-04T21:27:09.698Z,96601.75
2018-06-04T21:29:38.486Z,96587.66
2018-06-04T21:32:07.079Z,96507.55
2018-06-04T21:34:35.729Z,96411.24
2018-06-04T21:37:04.434Z,96405.25
2018-06-04T21:39:33.226Z,96340.24
2018-06-04T21:42:01.883Z,96298.19
2018-06-04T21:44:30.635Z,96369.35
2018-06-04T21:46:59.471Z,96377.52
2018-06-04T21:49:28.098Z,96363.86
2018-06-04T21:51:57.622Z,96355.36
2018-06-04T21:54:26.332Z,96312.37
2018-06-04T21:56:55.244Z,96275.67
2018-06-04T21:59:24.007Z,96279.86
2018-06-04T22:01:52.764Z,96290.03
2018-06-04T22:04:21.673Z,96324.91
2018-06-04T22:06:50.399Z,96338.53
2018-06-04T22:09:19.074Z,96355.94
2018-06-04T22:11:47.893Z,96355.03
2018-06-04T22:14:16.583Z,96360.47
2018-06-04T22:16:45.405Z,96370.67
2018-06-04T22:19:14.181Z,96375.28
2018-06-04T22:21:42.894Z,96347.41
2018-06-04T22:24:11.913Z,96390.95
2018-06-04T22:26:40.630Z,96443.22
2018-06-04T22:29:09.330Z,96450.95
2018-06-04T22:31:38.129Z,96473.16
2018-06-04T22:34:06.880Z,96509.48
2018-06-04T22:36:35.625Z,96526.84
2018-06-04T22:39:06.809Z,96536.67
2018-06-04T22:41:35.533Z,96542.67
2018-06-04T22:44:05.605Z,96500.55
2018-06-04T22:46:34.237Z,96483.40
2018-06-04T22:49:07.439Z,96438.95
2018-06-04T22:51:36.444Z,96454.30
2018-06-04T22:54:05.176Z,96437.56
2018-06-04T22:56:34.058Z,96435.45
2018-06-04T22:59:02.872Z,96434.58
2018-06-04T23:01:31.434Z,96426.47
2018-06-04T23:04:00.151Z,96434.58
2018-06-04T23:06:28.865Z,96446.92
2018-06-04T23:08:57.460Z,96470.45
2018-06-04T23:11:26.099Z,96488.09
2018-06-04T23:13:54.958Z,96483.34
2018-06-04T23:16:23.624Z,96450.94
2018-06-04T23:18:52.233Z,96457.19
2018-06-04T23:21:21.138Z,96433.73
2018-06-04T23:23:49.837Z,96369.33
2018-06-04T23:26:18.554Z,96365.42
2018-06-04T23:28:47.323Z,96359.27
2018-06-04T23:31:15.977Z,96349.30
2018-06-04T23:33:44.703Z,96281.11
2018-06-04T23:36:13.500Z,96230.83
2018-06-04T23:38:42.248Z,96212.41
2018-06-04T23:41:10.948Z,96194.83
2018-06-04T23:43:39.791Z,96165.77
2018-06-04T23:46:08.457Z,96141.75
2018-06-04T23:48:37.148Z,96142.52
2018-06-04T23:51:05.932Z,96124.59
2018-06-04T23:53:34.654Z,96116.91
2018-06-04T23:56:03.251Z,96119.57
2018-06-04T23:58:32.266Z,96122.85
